Time;durP1;ratioP1;P1;durP2;ratioP2;P2;SDS_P1;SDS_P2;PMS_P1;PMS_P2;Temp;Humidity;BMP_temperature;BMP_pressure;BME280_temperature;BME280_humidity;BME280_pressure;Samples;Min_cycle;Max_cycle;Signal;HPM_P1;HPM_P2
2022/05/12 00:00:23;;;;;;;25.53;19.73;;;;;;;;;;5010040;28;20203;-69
2022/05/12 00:02:49;;;;;;;27.27;21.13;;;;;;;;;;5029506;28;20289;-68
2022/05/12 00:05:34;;;;;;;26.70;21.17;;;;;;;;;;5030233;28;20178;-67
2022/05/12 00:08:00;;;;;;;27.50;22.60;;;;;;;;;;5029443;28;20302;-67
2022/05/12 00:10:45;;;;;;;30.73;22.60;;;;;;;;;;5029816;28;20305;-67
2022/05/12 00:13:11;;;;;;;28.37;21.63;;;;;;;;;;5030067;28;20183;-67
2022/05/12 00:15:38;;;;;;;28.33;20.93;;;;;;;;;;5029670;28;20179;-67
2022/05/12 00:18:06;;;;;;;27.93;20.80;;;;;;;;;;5015910;28;20250;-67
2022/05/12 00:20:34;;;;;;;26.03;19.27;;;;;;;;;;4992564;28;20611;-67
2022/05/12 00:23:07;;;;;;;29.90;21.47;;;;;;;;;;5009620;28;20271;-67
2022/05/12 00:25:34;;;;;;;28.90;21.13;;;;;;;;;;4992569;28;20211;-67
2022/05/12 00:28:01;;;;;;;28.03;21.40;;;;;;;;;;4991973;28;20195;-67
2022/05/12 00:30:28;;;;;;;29.40;21.27;;;;;;;;;;5009982;28;20198;-67
2022/05/12 00:32:54;;;;;;;27.77;21.53;;;;;;;;;;5009629;28;20246;-67
2022/05/12 00:35:21;;;;;;;27.33;20.97;;;;;;;;;;5008968;28;20234;-67
2022/05/12 00:37:48;;;;;;;26.83;20.77;;;;;;;;;;5009196;28;20223;-67
2022/05/12 00:40:14;;;;;;;27.27;19.70;;;;;;;;;;5033315;28;20211;-67
2022/05/12 00:42:54;;;;;;;28.40;21.93;;;;;;;;;;5030906;28;20205;-68
2022/05/12 00:45:21;;;;;;;27.00;20.63;;;;;;;;;;5047222;28;20190;-67
2022/05/12 00:47:48;;;;;;;29.93;20.20;;;;;;;;;;5048772;28;20191;-67
2022/05/12 00:50:15;;;;;;;27.27;20.60;;;;;;;;;;5031268;28;20198;-67
2022/05/12 00:52:41;;;;;;;26.83;20.80;;;;;;;;;;5029288;28;20310;-68
2022/05/12 00:55:15;;;;;;;26.03;20.70;;;;;;;;;;5024210;28;20263;-67
2022/05/12 00:57:44;;;;;;;28.03;21.67;;;;;;;;;;5008923;28;20238;-68
2022/05/12 01:00:11;;;;;;;29.30;22.17;;;;;;;;;;5009138;28;20183;-67
2022/05/12 01:02:38;;;;;;;25.73;20.30;;;;;;;;;;5009329;28;21000;-67
2022/05/12 01:05:05;;;;;;;23.13;16.70;;;;;;;;;;5009177;28;20246;-67
2022/05/12 01:07:32;;;;;;;24.23;19.23;;;;;;;;;;5024243;28;20552;-67
2022/05/12 01:10:00;;;;;;;25.03;18.43;;;;;;;;;;5016426;28;20191;-67
2022/05/12 01:12:27;;;;;;;23.30;18.07;;;;;;;;;;5028981;28;20198;-67
2022/05/12 01:14:54;;;;;;;24.40;19.30;;;;;;;;;;5028837;28;20191;-67
2022/05/12 01:17:23;;;;;;;26.87;18.73;;;;;;;;;;5028477;28;20274;-67
2022/05/12 01:19:51;;;;;;;23.87;18.53;;;;;;;;;;5028583;28;20195;-67
2022/05/12 01:22:27;;;;;;;24.77;19.63;;;;;;;;;;5010972;28;20215;-67
2022/05/12 01:24:53;;;;;;;27.20;20.60;;;;;;;;;;5027851;28;20704;-68
2022/05/12 01:27:20;;;;;;;26.20;19.73;;;;;;;;;;5028506;28;20183;-68
2022/05/12 01:29:47;;;;;;;28.10;20.63;;;;;;;;;;5028280;28;20303;-69
2022/05/12 01:32:14;;;;;;;31.17;22.70;;;;;;;;;;5028316;28;20183;-69
2022/05/12 01:34:41;;;;;;;30.50;22.07;;;;;;;;;;5028311;28;20635;-69
2022/05/12 01:37:07;;;;;;;34.70;24.20;;;;;;;;;;5028108;28;20223;-69
2022/05/12 01:39:35;;;;;;;33.80;24.63;;;;;;;;;;5035680;28;20721;-69
2022/05/12 01:42:05;;;;;;;34.80;23.93;;;;;;;;;;5024518;28;20219;-67
2022/05/12 01:44:49;;;;;;;31.40;22.90;;;;;;;;;;5008518;28;20183;-68
2022/05/12 01:47:16;;;;;;;31.93;22.93;;;;;;;;;;5008484;28;20730;-67
2022/05/12 01:50:00;;;;;;;29.90;21.80;;;;;;;;;;4993536;28;20698;-69
2022/05/12 01:52:27;;;;;;;31.57;22.77;;;;;;;;;;5008213;28;20220;-69
2022/05/12 01:55:12;;;;;;;31.30;22.07;;;;;;;;;;5008391;28;20191;-68
2022/05/12 01:57:42;;;;;;;30.10;21.40;;;;;;;;;;4990398;28;20192;-69
2022/05/12 02:00:12;;;;;;;27.63;19.93;;;;;;;;;;5008600;28;20191;-69
2022/05/12 02:02:39;;;;;;;29.03;21.20;;;;;;;;;;4991064;28;20192;-69
2022/05/12 02:05:09;;;;;;;27.27;20.93;;;;;;;;;;5008503;28;20219;-69
2022/05/12 02:07:41;;;;;;;29.17;21.07;;;;;;;;;;4991505;28;20207;-69
2022/05/12 02:10:08;;;;;;;26.80;20.70;;;;;;;;;;5008158;28;20590;-69
2022/05/12 02:12:34;;;;;;;27.13;21.37;;;;;;;;;;5008649;28;20192;-69
2022/05/12 02:15:01;;;;;;;27.27;19.77;;;;;;;;;;5014691;28;20195;-69
2022/05/12 02:17:28;;;;;;;27.10;20.73;;;;;;;;;;5010670;28;20176;-69
2022/05/12 02:19:54;;;;;;;28.37;21.20;;;;;;;;;;5010796;28;20188;-69
2022/05/12 02:22:21;;;;;;;30.07;21.90;;;;;;;;;;5007773;28;20294;-69
2022/05/12 02:24:48;;;;;;;31.20;22.83;;;;;;;;;;5008117;28;20188;-68
2022/05/12 02:27:14;;;;;;;31.03;22.87;;;;;;;;;;5008577;28;20200;-68
2022/05/12 02:29:41;;;;;;;29.13;22.80;;;;;;;;;;4990564;28;20180;-69
2022/05/12 02:32:08;;;;;;;32.53;23.90;;;;;;;;;;5013766;28;20197;-69
2022/05/12 02:34:52;;;;;;;29.27;22.30;;;;;;;;;;5027995;28;20306;-68
2022/05/12 02:37:18;;;;;;;33.97;24.60;;;;;;;;;;5027303;28;20231;-69
2022/05/12 02:39:45;;;;;;;31.60;22.63;;;;;;;;;;5036170;28;20186;-69
2022/05/12 02:42:12;;;;;;;30.53;22.93;;;;;;;;;;5046771;28;20217;-69
2022/05/12 02:44:39;;;;;;;32.33;22.80;;;;;;;;;;5029898;28;20186;-69
2022/05/12 02:47:07;;;;;;;33.27;23.13;;;;;;;;;;5047639;28;20199;-69
2022/05/12 02:49:34;;;;;;;32.70;23.50;;;;;;;;;;5026682;28;20194;-69
2022/05/12 02:52:00;;;;;;;32.80;23.57;;;;;;;;;;5007543;28;21032;-69
2022/05/12 02:54:27;;;;;;;30.67;22.67;;;;;;;;;;5008199;28;20216;-69
2022/05/12 02:56:55;;;;;;;31.37;22.57;;;;;;;;;;5007892;28;20186;-69
2022/05/12 02:59:22;;;;;;;29.30;22.17;;;;;;;;;;5007561;28;20196;-69
2022/05/12 03:01:49;;;;;;;29.40;22.57;;;;;;;;;;4989920;28;20215;-69
2022/05/12 03:04:16;;;;;;;32.70;23.57;;;;;;;;;;5012968;28;20238;-69
2022/05/12 03:06:43;;;;;;;34.80;24.50;;;;;;;;;;5027065;28;20240;-69
2022/05/12 03:09:09;;;;;;;34.93;24.60;;;;;;;;;;5029979;28;20183;-67
2022/05/12 03:11:36;;;;;;;32.03;23.87;;;;;;;;;;5030756;28;20190;-69
2022/05/12 03:14:03;;;;;;;29.50;21.80;;;;;;;;;;5031042;28;20215;-69
2022/05/12 03:16:30;;;;;;;29.97;22.60;;;;;;;;;;5030756;28;20184;-70
2022/05/12 03:18:57;;;;;;;30.17;22.87;;;;;;;;;;5013466;28;20206;-68
2022/05/12 03:21:24;;;;;;;31.70;23.73;;;;;;;;;;5029809;28;20562;-68
2022/05/12 03:23:51;;;;;;;30.67;22.73;;;;;;;;;;5030930;28;20189;-68
2022/05/12 03:26:18;;;;;;;35.20;25.40;;;;;;;;;;5030891;28;20195;-68
2022/05/12 03:28:45;;;;;;;36.67;26.43;;;;;;;;;;5030617;28;21288;-68
2022/05/12 03:31:12;;;;;;;33.63;25.77;;;;;;;;;;5030767;28;20196;-68
2022/05/12 03:33:39;;;;;;;34.70;25.50;;;;;;;;;;5030729;28;20292;-68
2022/05/12 03:36:06;;;;;;;32.40;23.63;;;;;;;;;;5023539;28;20930;-68
2022/05/12 03:38:33;;;;;;;31.07;23.60;;;;;;;;;;4993481;28;20220;-68
2022/05/12 03:41:00;;;;;;;34.50;24.67;;;;;;;;;;5030596;28;20679;-68
2022/05/12 03:46:13;;;;;;;32.77;25.23;;;;;;;;;;5050536;28;20274;-68
2022/05/12 03:48:40;;;;;;;31.00;24.07;;;;;;;;;;5049017;28;20183;-68
2022/05/12 03:51:07;;;;;;;35.80;26.13;;;;;;;;;;5050251;28;20254;-68
2022/05/12 03:53:35;;;;;;;36.77;26.87;;;;;;;;;;5021291;28;20195;-68
2022/05/12 03:56:02;;;;;;;37.83;26.77;;;;;;;;;;5012508;28;20188;-68
2022/05/12 03:58:29;;;;;;;43.00;28.10;;;;;;;;;;5029793;28;20662;-68
2022/05/12 04:00:56;;;;;;;42.97;28.90;;;;;;;;;;4996724;28;20191;-68
2022/05/12 04:03:23;;;;;;;42.43;29.27;;;;;;;;;;5029855;28;20194;-69
2022/05/12 04:05:49;;;;;;;48.37;31.47;;;;;;;;;;5012356;28;20630;-68
2022/05/12 04:08:16;;;;;;;50.13;31.90;;;;;;;;;;5012749;28;20242;-68
2022/05/12 04:10:43;;;;;;;50.80;34.17;;;;;;;;;;5013460;28;20274;-68
2022/05/12 04:13:10;;;;;;;52.47;34.00;;;;;;;;;;5009803;28;20199;-68
2022/05/12 04:15:36;;;;;;;56.90;34.93;;;;;;;;;;5010495;28;20202;-68
2022/05/12 04:18:04;;;;;;;53.43;33.83;;;;;;;;;;5009975;28;20196;-68
2022/05/12 04:20:49;;;;;;;48.53;32.20;;;;;;;;;;4994170;28;20576;-68
2022/05/12 04:23:15;;;;;;;48.53;32.73;;;;;;;;;;5010011;28;20196;-67
2022/05/12 04:25:42;;;;;;;46.00;31.03;;;;;;;;;;4999993;28;20575;-67
2022/05/12 04:28:09;;;;;;;48.60;32.67;;;;;;;;;;5009896;28;20192;-68
2022/05/12 04:30:36;;;;;;;48.53;31.37;;;;;;;;;;5009953;28;20184;-68
2022/05/12 04:35:48;;;;;;;44.03;30.87;;;;;;;;;;5024317;28;20330;-69
2022/05/12 04:38:15;;;;;;;48.80;33.00;;;;;;;;;;5038476;28;20222;-68
2022/05/12 04:40:42;;;;;;;45.03;32.13;;;;;;;;;;5015799;28;20241;-69
2022/05/12 04:43:09;;;;;;;42.60;30.30;;;;;;;;;;5003730;28;20222;-69
2022/05/12 04:45:36;;;;;;;42.00;30.83;;;;;;;;;;5042982;28;20195;-69
2022/05/12 04:48:03;;;;;;;40.23;28.30;;;;;;;;;;5029940;28;20287;-69
2022/05/12 04:50:31;;;;;;;39.60;27.93;;;;;;;;;;5029531;28;20194;-69
2022/05/12 04:52:58;;;;;;;37.80;27.93;;;;;;;;;;5027014;28;20187;-69
2022/05/12 04:55:25;;;;;;;41.27;29.43;;;;;;;;;;5027402;28;20199;-69
2022/05/12 04:57:55;;;;;;;41.43;29.13;;;;;;;;;;5026784;28;20237;-69
2022/05/12 05:00:23;;;;;;;47.17;31.23;;;;;;;;;;4994665;28;20203;-69
2022/05/12 05:02:50;;;;;;;45.53;30.50;;;;;;;;;;5028332;28;20317;-68
2022/05/12 05:05:17;;;;;;;45.23;31.27;;;;;;;;;;5028863;28;20671;-69
2022/05/12 05:07:44;;;;;;;51.17;32.93;;;;;;;;;;5027440;28;20193;-68
2022/05/12 05:10:12;;;;;;;53.73;34.30;;;;;;;;;;5026606;28;20246;-68
2022/05/12 05:12:39;;;;;;;54.37;36.53;;;;;;;;;;5024596;28;20202;-68
2022/05/12 05:15:07;;;;;;;47.97;32.97;;;;;;;;;;5033953;28;20203;-69
2022/05/12 05:17:35;;;;;;;46.83;31.97;;;;;;;;;;5040932;28;20534;-69
2022/05/12 05:20:05;;;;;;;45.23;31.67;;;;;;;;;;5038128;28;20195;-69
2022/05/12 05:22:33;;;;;;;44.70;31.60;;;;;;;;;;5039922;28;20225;-69
2022/05/12 05:24:59;;;;;;;41.37;29.90;;;;;;;;;;5040531;28;20289;-68
2022/05/12 05:27:26;;;;;;;40.10;29.60;;;;;;;;;;5042161;28;20199;-68
2022/05/12 05:29:53;;;;;;;43.37;30.17;;;;;;;;;;5040344;28;20206;-68
2022/05/12 05:32:20;;;;;;;38.70;28.10;;;;;;;;;;5034562;28;20869;-68
2022/05/12 05:34:48;;;;;;;36.97;27.63;;;;;;;;;;5039188;28;20800;-69
2022/05/12 05:37:14;;;;;;;37.60;26.83;;;;;;;;;;5047930;28;20229;-69
2022/05/12 05:39:41;;;;;;;37.70;27.43;;;;;;;;;;5039668;28;20180;-68
2022/05/12 05:42:13;;;;;;;37.67;26.90;;;;;;;;;;5028405;28;20208;-70
2022/05/12 05:44:40;;;;;;;36.60;26.13;;;;;;;;;;4993756;28;20735;-68
2022/05/12 05:47:07;;;;;;;31.73;25.10;;;;;;;;;;5010803;28;20942;-68
2022/05/12 05:49:37;;;;;;;31.80;24.67;;;;;;;;;;4988508;28;20199;-68
2022/05/12 05:54:50;;;;;;;35.23;24.77;;;;;;;;;;5039855;28;20234;-69
2022/05/12 05:57:23;;;;;;;30.93;24.03;;;;;;;;;;5008065;28;20191;-67
2022/05/12 06:00:09;;;;;;;34.03;25.13;;;;;;;;;;5038731;28;20192;-67
2022/05/12 06:02:36;;;;;;;31.40;24.73;;;;;;;;;;5031791;28;20899;-69
2022/05/12 06:05:05;;;;;;;32.93;25.63;;;;;;;;;;5039779;28;20189;-68
2022/05/12 06:07:36;;;;;;;30.93;23.87;;;;;;;;;;5038969;28;20882;-68
2022/05/12 06:10:03;;;;;;;32.60;24.30;;;;;;;;;;5039627;28;20225;-67
2022/05/12 06:12:30;;;;;;;26.83;20.73;;;;;;;;;;5036282;28;20278;-67
2022/05/12 06:14:58;;;;;;;25.70;19.37;;;;;;;;;;5036556;28;20191;-67
2022/05/12 06:17:24;;;;;;;23.83;18.67;;;;;;;;;;5020053;28;20264;-68
2022/05/12 06:19:52;;;;;;;23.47;18.07;;;;;;;;;;5037712;28;20182;-67
2022/05/12 06:22:21;;;;;;;23.03;18.50;;;;;;;;;;5037533;28;20940;-67
2022/05/12 06:24:49;;;;;;;24.03;19.10;;;;;;;;;;5009694;28;20593;-67
2022/05/12 06:27:18;;;;;;;25.10;18.00;;;;;;;;;;5040543;28;20194;-68
2022/05/12 06:29:47;;;;;;;20.13;15.93;;;;;;;;;;5035896;28;20245;-68
2022/05/12 06:32:15;;;;;;;19.53;16.20;;;;;;;;;;5036823;28;20219;-67
2022/05/12 06:34:42;;;;;;;20.70;15.30;;;;;;;;;;5038904;28;20226;-67
2022/05/12 06:37:10;;;;;;;15.97;11.70;;;;;;;;;;5037806;28;20245;-67
2022/05/12 06:39:37;;;;;;;15.13;9.60;;;;;;;;;;5034320;28;20719;-68
2022/05/12 06:42:04;;;;;;;12.50;8.73;;;;;;;;;;5018302;28;20281;-67
2022/05/12 06:44:42;;;;;;;10.40;8.27;;;;;;;;;;5017690;28;20964;-67
2022/05/12 06:47:26;;;;;;;10.87;6.77;;;;;;;;;;4995065;28;20178;-68
2022/05/12 06:49:53;;;;;;;8.77;6.17;;;;;;;;;;5038347;28;20222;-67
2022/05/12 06:52:20;;;;;;;10.50;6.10;;;;;;;;;;5039217;28;20194;-66
2022/05/12 06:54:47;;;;;;;8.90;5.23;;;;;;;;;;5040754;28;20225;-69
2022/05/12 06:57:19;;;;;;;7.27;4.93;;;;;;;;;;5042245;28;20213;-67
2022/05/12 06:59:46;;;;;;;7.67;4.70;;;;;;;;;;5040280;28;20969;-68
2022/05/12 07:02:13;;;;;;;7.83;4.50;;;;;;;;;;5042490;28;20581;-68
2022/05/12 07:04:41;;;;;;;7.50;3.80;;;;;;;;;;5042754;28;20187;-70
2022/05/12 07:07:09;;;;;;;7.30;4.10;;;;;;;;;;5038362;28;20632;-70
2022/05/12 07:09:37;;;;;;;8.50;3.43;;;;;;;;;;5043425;28;20211;-68
2022/05/12 07:12:05;;;;;;;7.37;4.00;;;;;;;;;;5012034;28;20203;-68
2022/05/12 07:14:32;;;;;;;5.10;3.70;;;;;;;;;;5041604;28;20784;-67
2022/05/12 07:16:59;;;;;;;6.50;3.87;;;;;;;;;;5040182;28;20201;-68
2022/05/12 07:19:26;;;;;;;9.00;4.07;;;;;;;;;;5044568;28;20733;-68
2022/05/12 07:27:24;;;;;;;4.87;2.63;;;;;;;;;;5039069;28;20219;-71
2022/05/12 07:29:51;;;;;;;5.60;2.97;;;;;;;;;;5024286;28;20876;-68
2022/05/12 07:32:19;;;;;;;3.67;2.30;;;;;;;;;;5042774;28;20780;-68
2022/05/12 07:34:46;;;;;;;4.30;2.30;;;;;;;;;;5010913;28;20189;-69
2022/05/12 07:37:14;;;;;;;2.47;1.70;;;;;;;;;;5042887;28;20222;-69
2022/05/12 07:39:41;;;;;;;4.20;1.70;;;;;;;;;;5042688;28;20200;-69
2022/05/12 07:42:08;;;;;;;2.60;1.70;;;;;;;;;;5013681;28;20245;-70
2022/05/12 07:44:37;;;;;;;1.67;1.23;;;;;;;;;;5040894;28;20268;-69
2022/05/12 07:47:05;;;;;;;2.13;1.23;;;;;;;;;;5042247;28;20672;-69
2022/05/12 07:49:35;;;;;;;3.47;1.40;;;;;;;;;;5040839;28;20187;-69
2022/05/12 07:52:03;;;;;;;1.93;1.30;;;;;;;;;;5016081;28;20653;-70
2022/05/12 07:54:30;;;;;;;3.23;1.53;;;;;;;;;;5041846;28;20216;-67
2022/05/12 07:56:57;;;;;;;2.17;1.27;;;;;;;;;;5039800;28;20190;-69
2022/05/12 07:59:24;;;;;;;2.07;1.40;;;;;;;;;;5018147;28;20233;-67
2022/05/12 08:01:51;;;;;;;1.30;1.10;;;;;;;;;;5022436;28;20197;-69
2022/05/12 08:04:18;;;;;;;1.77;1.10;;;;;;;;;;5040592;28;20845;-67
2022/05/12 08:06:45;;;;;;;2.13;0.90;;;;;;;;;;5042638;28;20191;-66
2022/05/12 08:09:12;;;;;;;1.90;1.20;;;;;;;;;;5039792;28;20182;-68
2022/05/12 08:11:39;;;;;;;4.80;1.10;;;;;;;;;;5042758;28;20189;-68
2022/05/12 08:14:06;;;;;;;2.40;1.07;;;;;;;;;;5039271;28;20187;-68
2022/05/12 08:16:33;;;;;;;1.27;0.80;;;;;;;;;;5042653;28;20979;-67
2022/05/12 08:19:00;;;;;;;1.57;0.67;;;;;;;;;;5023892;28;20901;-68
2022/05/12 08:21:27;;;;;;;3.40;0.80;;;;;;;;;;5005580;28;20194;-68
2022/05/12 08:23:54;;;;;;;2.40;0.90;;;;;;;;;;5025541;28;20609;-68
2022/05/12 08:26:21;;;;;;;2.77;1.10;;;;;;;;;;5043337;28;20313;-68
2022/05/12 08:28:50;;;;;;;2.40;0.93;;;;;;;;;;5040626;28;20869;-68
2022/05/12 08:31:20;;;;;;;1.60;1.00;;;;;;;;;;5041823;28;20179;-68
2022/05/12 08:33:47;;;;;;;2.70;1.70;;;;;;;;;;5040766;28;20240;-68
2022/05/12 08:36:32;;;;;;;1.27;0.60;;;;;;;;;;5041040;28;20170;-67
2022/05/12 08:38:58;;;;;;;1.60;1.33;;;;;;;;;;5023497;28;20187;-68
2022/05/12 08:41:27;;;;;;;1.47;0.90;;;;;;;;;;5022433;28;20195;-68
2022/05/12 08:43:55;;;;;;;1.90;0.73;;;;;;;;;;5008998;28;20246;-67
2022/05/12 08:46:26;;;;;;;0.53;0.50;;;;;;;;;;5033197;28;20601;-69
2022/05/12 08:48:57;;;;;;;1.50;0.57;;;;;;;;;;5011149;28;20196;-68
2022/05/12 08:51:24;;;;;;;1.77;0.40;;;;;;;;;;5006084;28;20195;-68
2022/05/12 08:53:58;;;;;;;1.23;0.50;;;;;;;;;;5024827;28;20189;-68
2022/05/12 08:56:25;;;;;;;1.90;0.50;;;;;;;;;;5026932;28;20199;-67
2022/05/12 08:58:53;;;;;;;1.67;0.50;;;;;;;;;;5021882;28;20188;-67
2022/05/12 09:01:36;;;;;;;2.40;0.70;;;;;;;;;;5033479;28;20564;-68
2022/05/12 09:04:17;;;;;;;0.67;0.50;;;;;;;;;;5009681;28;20249;-67
2022/05/12 09:07:01;;;;;;;2.40;0.50;;;;;;;;;;5021835;28;20202;-68
2022/05/12 09:09:28;;;;;;;3.13;0.60;;;;;;;;;;5021814;28;20655;-68
2022/05/12 09:11:57;;;;;;;0.80;0.40;;;;;;;;;;5022887;28;20184;-68
2022/05/12 09:14:24;;;;;;;0.70;0.40;;;;;;;;;;5022346;28;20183;-68
2022/05/12 09:16:51;;;;;;;0.77;0.57;;;;;;;;;;5021903;28;20196;-69
2022/05/12 09:19:19;;;;;;;3.00;0.90;;;;;;;;;;5017069;28;20246;-67
2022/05/12 09:21:46;;;;;;;3.47;0.63;;;;;;;;;;5021508;28;20282;-68
2022/05/12 09:24:13;;;;;;;2.20;0.60;;;;;;;;;;5022955;28;20223;-68
2022/05/12 09:26:41;;;;;;;7.10;1.23;;;;;;;;;;5006460;28;20195;-68
2022/05/12 09:29:14;;;;;;;5.17;1.07;;;;;;;;;;5002621;28;20203;-68
2022/05/12 09:31:42;;;;;;;0.83;0.40;;;;;;;;;;5021616;28;20219;-68
2022/05/12 09:34:20;;;;;;;1.10;0.50;;;;;;;;;;5008683;28;20286;-68
2022/05/12 09:36:47;;;;;;;0.83;0.40;;;;;;;;;;5021654;28;20308;-68
2022/05/12 09:39:33;;;;;;;2.13;0.50;;;;;;;;;;5022789;28;20188;-69
2022/05/12 09:42:01;;;;;;;1.20;0.57;;;;;;;;;;5022252;28;20869;-68
2022/05/12 09:44:28;;;;;;;2.43;0.90;;;;;;;;;;5021667;28;20250;-68
2022/05/12 09:47:03;;;;;;;0.77;0.50;;;;;;;;;;5021038;28;20195;-68
2022/05/12 09:49:47;;;;;;;1.03;0.40;;;;;;;;;;5020997;28;20190;-68
2022/05/12 09:52:35;;;;;;;1.80;0.50;;;;;;;;;;5021925;28;20191;-68
2022/05/12 09:55:13;;;;;;;3.73;0.70;;;;;;;;;;5021454;28;20438;-68
2022/05/12 09:57:49;;;;;;;2.60;0.70;;;;;;;;;;5021929;28;20199;-69
2022/05/12 10:00:27;;;;;;;2.43;0.70;;;;;;;;;;5022141;28;20197;-68
2022/05/12 10:08:29;;;;;;;2.83;1.13;;;;;;;;;;5031282;28;20839;-68
2022/05/12 10:11:14;;;;;;;17.33;1.60;;;;;;;;;;5021071;28;20215;-68
2022/05/12 10:13:41;;;;;;;3.33;0.70;;;;;;;;;;5021604;28;20188;-68
2022/05/12 10:16:27;;;;;;;4.67;1.00;;;;;;;;;;5022262;28;20179;-68
2022/05/12 10:18:55;;;;;;;4.97;0.90;;;;;;;;;;5024569;28;20262;-68
2022/05/12 10:21:48;;;;;;;1.37;0.60;;;;;;;;;;5026116;28;20198;-69
2022/05/12 10:24:21;;;;;;;5.37;2.20;;;;;;;;;;5023720;28;20706;-68
2022/05/12 10:26:50;;;;;;;7.03;1.03;;;;;;;;;;5014522;28;20241;-68
2022/05/12 10:29:37;;;;;;;4.27;0.77;;;;;;;;;;5019554;28;20203;-68
2022/05/12 10:32:23;;;;;;;3.97;0.80;;;;;;;;;;5024370;28;20206;-69
2022/05/12 10:34:59;;;;;;;1.43;0.80;;;;;;;;;;5024460;28;20222;-67
2022/05/12 10:37:44;;;;;;;5.00;1.00;;;;;;;;;;5016051;28;20289;-68
2022/05/12 10:40:27;;;;;;;5.73;1.00;;;;;;;;;;5026178;28;20265;-67
2022/05/12 10:43:29;;;;;;;3.13;0.90;;;;;;;;;;5025191;28;20937;-70
2022/05/12 10:46:01;;;;;;;3.60;1.10;;;;;;;;;;5025423;28;20663;-68
2022/05/12 10:48:34;;;;;;;6.17;1.93;;;;;;;;;;5022830;28;20188;-68
2022/05/12 10:51:02;;;;;;;8.70;1.07;;;;;;;;;;5024926;28;20249;-69
2022/05/12 10:53:40;;;;;;;2.73;0.90;;;;;;;;;;5025099;28;20207;-70
2022/05/12 10:56:13;;;;;;;4.00;0.80;;;;;;;;;;5026256;28;20196;-68
2022/05/12 10:58:46;;;;;;;3.73;0.80;;;;;;;;;;5026078;28;20670;-70
2022/05/12 11:01:19;;;;;;;5.17;1.33;;;;;;;;;;5012559;28;20187;-68
2022/05/12 11:03:46;;;;;;;2.63;0.90;;;;;;;;;;5014691;28;20239;-68
2022/05/12 11:06:14;;;;;;;4.10;0.87;;;;;;;;;;5026282;28;20198;-68
2022/05/12 11:08:50;;;;;;;6.63;1.17;;;;;;;;;;5024783;28;20637;-68
2022/05/12 11:11:18;;;;;;;5.03;1.20;;;;;;;;;;5026823;28;20735;-68
2022/05/12 11:13:45;;;;;;;3.50;0.80;;;;;;;;;;5024675;28;20196;-68
2022/05/12 11:16:16;;;;;;;3.27;0.83;;;;;;;;;;5024603;28;20180;-68
2022/05/12 11:19:02;;;;;;;2.77;1.20;;;;;;;;;;5024215;28;20222;-67
2022/05/12 11:21:53;;;;;;;4.43;1.27;;;;;;;;;;5023597;28;20234;-68
2022/05/12 11:24:39;;;;;;;14.07;2.07;;;;;;;;;;5009147;28;20760;-67
2022/05/12 11:27:33;;;;;;;3.47;1.10;;;;;;;;;;5024934;28;20282;-67
2022/05/12 11:30:19;;;;;;;6.60;0.93;;;;;;;;;;5021312;28;20199;-66
2022/05/12 11:32:51;;;;;;;5.70;1.93;;;;;;;;;;5023331;28;20200;-67
2022/05/12 11:35:21;;;;;;;3.60;0.97;;;;;;;;;;5024304;28;20204;-67
2022/05/12 11:37:50;;;;;;;4.53;0.90;;;;;;;;;;5034784;28;20222;-69
2022/05/12 11:40:40;;;;;;;3.50;1.00;;;;;;;;;;5042246;28;20293;-68
2022/05/12 11:46:23;;;;;;;3.47;0.90;;;;;;;;;;5041293;28;20230;-67
2022/05/12 11:48:56;;;;;;;8.53;1.27;;;;;;;;;;5040586;28;20194;-67
2022/05/12 11:51:38;;;;;;;3.30;1.33;;;;;;;;;;5042787;28;20657;-64
2022/05/12 11:54:25;;;;;;;2.53;0.90;;;;;;;;;;5042130;28;20769;-65
2022/05/12 11:56:53;;;;;;;7.80;1.10;;;;;;;;;;5041287;28;20290;-67
2022/05/12 11:59:24;;;;;;;5.70;1.03;;;;;;;;;;5040217;28;20298;-66
2022/05/12 12:01:59;;;;;;;7.33;1.07;;;;;;;;;;5040022;28;20198;-65
2022/05/12 12:04:44;;;;;;;4.10;0.90;;;;;;;;;;5039723;28;20692;-65
2022/05/12 12:07:21;;;;;;;5.03;0.90;;;;;;;;;;5042381;28;20234;-67
2022/05/12 12:09:51;;;;;;;3.13;0.90;;;;;;;;;;5042832;28;20186;-64
2022/05/12 12:12:37;;;;;;;5.13;0.80;;;;;;;;;;5039430;28;20261;-67
2022/05/12 12:15:04;;;;;;;4.07;0.70;;;;;;;;;;5013878;28;20187;-68
2022/05/12 12:17:35;;;;;;;10.20;1.40;;;;;;;;;;5035976;28;20278;-67
2022/05/12 12:20:21;;;;;;;8.53;1.10;;;;;;;;;;5021457;28;20206;-66
2022/05/12 12:22:48;;;;;;;4.03;0.87;;;;;;;;;;5039790;28;20282;-69
2022/05/12 12:25:40;;;;;;;5.83;0.77;;;;;;;;;;5018939;28;20956;-66
2022/05/12 12:28:10;;;;;;;4.77;0.93;;;;;;;;;;5040291;28;20199;-67
2022/05/12 12:30:38;;;;;;;4.70;1.03;;;;;;;;;;5042004;28;20195;-65
2022/05/12 12:33:17;;;;;;;1.87;0.70;;;;;;;;;;5042934;28;20194;-67
2022/05/12 12:35:52;;;;;;;4.90;1.07;;;;;;;;;;5018764;28;20535;-68
2022/05/12 12:38:38;;;;;;;3.67;0.83;;;;;;;;;;5033087;28;20998;-68
2022/05/12 12:41:05;;;;;;;16.20;1.60;;;;;;;;;;5032091;28;20577;-67
2022/05/12 12:43:37;;;;;;;4.83;0.80;;;;;;;;;;5012359;28;20892;-68
2022/05/12 12:46:20;;;;;;;5.83;1.10;;;;;;;;;;5040419;28;20225;-68
2022/05/12 12:48:54;;;;;;;3.37;1.30;;;;;;;;;;5029969;28;20210;-67
2022/05/12 12:51:31;;;;;;;8.47;1.03;;;;;;;;;;5010523;28;20737;-67
2022/05/12 12:57:07;;;;;;;6.73;1.10;;;;;;;;;;5014811;28;20195;-67
2022/05/12 12:59:35;;;;;;;24.57;2.50;;;;;;;;;;5028644;28;20199;-68
2022/05/12 13:02:02;;;;;;;6.03;1.10;;;;;;;;;;5029057;28;20257;-68
2022/05/12 13:04:31;;;;;;;4.77;1.10;;;;;;;;;;5029897;28;20242;-67
2022/05/12 13:07:02;;;;;;;6.93;1.23;;;;;;;;;;5024508;28;20730;-68
2022/05/12 13:09:30;;;;;;;4.00;0.87;;;;;;;;;;5030353;28;20224;-67
2022/05/12 13:12:09;;;;;;;6.37;0.93;;;;;;;;;;5028687;28;20270;-68
2022/05/12 13:14:36;;;;;;;2.50;1.00;;;;;;;;;;5027674;28;20262;-67
2022/05/12 13:17:03;;;;;;;6.10;1.20;;;;;;;;;;5030101;28;20249;-67
2022/05/12 13:19:35;;;;;;;8.50;1.60;;;;;;;;;;5028637;28;20203;-67
2022/05/12 13:22:03;;;;;;;7.33;1.60;;;;;;;;;;5011005;28;20457;-68
2022/05/12 13:24:32;;;;;;;7.63;1.00;;;;;;;;;;5014198;28;20242;-68
2022/05/12 13:26:59;;;;;;;13.27;1.70;;;;;;;;;;5040608;28;20317;-66
2022/05/12 13:29:27;;;;;;;8.03;1.47;;;;;;;;;;5005612;28;20196;-66
2022/05/12 13:31:55;;;;;;;7.23;1.23;;;;;;;;;;5009093;28;20211;-67
2022/05/12 13:34:24;;;;;;;4.87;1.20;;;;;;;;;;5024008;28;20753;-67
2022/05/12 13:36:53;;;;;;;7.80;1.30;;;;;;;;;;5027812;28;20223;-67
2022/05/12 13:39:39;;;;;;;5.20;1.30;;;;;;;;;;5027603;28;20203;-68
2022/05/12 13:42:06;;;;;;;2.93;1.00;;;;;;;;;;5031173;28;20191;-68
2022/05/12 13:44:37;;;;;;;5.30;1.23;;;;;;;;;;5025277;28;20694;-67
2022/05/12 13:47:05;;;;;;;2.90;1.17;;;;;;;;;;5030526;28;20282;-68
2022/05/12 13:49:49;;;;;;;10.07;1.73;;;;;;;;;;5031750;28;20672;-68
2022/05/12 13:52:17;;;;;;;7.33;1.40;;;;;;;;;;5025763;28;20911;-67
2022/05/12 13:54:53;;;;;;;8.30;1.40;;;;;;;;;;5027654;28;20207;-68
2022/05/12 13:57:20;;;;;;;8.60;1.13;;;;;;;;;;5009506;28;20622;-68
2022/05/12 13:59:53;;;;;;;12.20;1.33;;;;;;;;;;5029261;28;20733;-68
2022/05/12 14:02:24;;;;;;;6.80;1.30;;;;;;;;;;5033321;28;20274;-67
2022/05/12 14:04:51;;;;;;;3.70;0.93;;;;;;;;;;5027212;28;20215;-68
2022/05/12 14:07:25;;;;;;;7.37;1.40;;;;;;;;;;5017326;28;21014;-68
2022/05/12 14:09:54;;;;;;;6.10;0.93;;;;;;;;;;5026425;28;20274;-66
2022/05/12 14:19:13;;;;;;;6.40;0.97;;;;;;;;;;5028447;28;20993;-67
2022/05/12 14:20:59;;;;;;;8.30;1.10;;;;;;;;;;5038745;28;20815;-68
2022/05/12 14:23:26;;;;;;;4.07;0.90;;;;;;;;;;5033789;28;20195;-68
2022/05/12 14:25:53;;;;;;;6.43;1.23;;;;;;;;;;5017086;28;20209;-68
2022/05/12 14:28:20;;;;;;;5.07;1.27;;;;;;;;;;5014284;28;20183;-67
2022/05/12 14:30:47;;;;;;;6.00;1.10;;;;;;;;;;5025278;28;20226;-66
2022/05/12 14:33:14;;;;;;;3.70;0.90;;;;;;;;;;5027002;28;20693;-68
2022/05/12 14:35:42;;;;;;;5.53;1.60;;;;;;;;;;5025925;28;20203;-67
2022/05/12 14:38:09;;;;;;;9.40;1.20;;;;;;;;;;5032714;28;20767;-68
2022/05/12 14:40:36;;;;;;;5.27;1.10;;;;;;;;;;5037497;28;20370;-69
2022/05/12 14:43:03;;;;;;;9.87;1.50;;;;;;;;;;5007821;28;20290;-69
2022/05/12 14:45:30;;;;;;;5.80;1.23;;;;;;;;;;5040129;28;20909;-69
2022/05/12 14:48:01;;;;;;;7.73;1.30;;;;;;;;;;5040986;28;20206;-69
2022/05/12 14:50:47;;;;;;;6.40;1.47;;;;;;;;;;5013291;28;20183;-69
2022/05/12 14:53:16;;;;;;;5.93;1.10;;;;;;;;;;5011036;28;20179;-68
2022/05/12 14:56:00;;;;;;;8.50;1.33;;;;;;;;;;5020508;28;20199;-67
2022/05/12 14:58:27;;;;;;;5.30;0.93;;;;;;;;;;5017484;28;20281;-67
2022/05/12 15:00:53;;;;;;;6.80;1.57;;;;;;;;;;5027484;28;20222;-68
2022/05/12 15:03:20;;;;;;;8.40;1.50;;;;;;;;;;5027845;28;20195;-67
2022/05/12 15:05:47;;;;;;;4.57;1.10;;;;;;;;;;5012849;28;20235;-67
2022/05/12 15:08:13;;;;;;;9.00;1.40;;;;;;;;;;5013585;28;20204;-67
2022/05/12 15:10:40;;;;;;;4.47;1.00;;;;;;;;;;5031135;28;20187;-67
2022/05/12 15:13:07;;;;;;;3.37;1.10;;;;;;;;;;5031187;28;20270;-67
2022/05/12 15:15:34;;;;;;;7.53;1.23;;;;;;;;;;5031292;28;20286;-67
2022/05/12 15:18:00;;;;;;;3.70;1.00;;;;;;;;;;5030774;28;20191;-67
2022/05/12 15:20:27;;;;;;;4.63;1.27;;;;;;;;;;5030734;28;20218;-67